Time;durP1;ratioP1;P1;durP2;ratioP2;P2;SDS_P1;SDS_P2;PMS_P1;PMS_P2;Temp;Humidity;BMP_temperature;BMP_pressure;BME280_temperature;BME280_humidity;BME280_pressure;Samples;Min_cycle;Max_cycle;Signal;HPM_P1;HPM_P2
2022/05/10 00:02:15;;;;;;;8.73;7.68;;;13.80;99.90;;;;;;5054190;28;20110;-68
2022/05/10 00:04:48;;;;;;;9.35;8.38;;;13.80;99.90;;;;;;5053895;28;20465;-69
2022/05/10 00:07:13;;;;;;;8.98;8.18;;;13.80;99.90;;;;;;5054098;28;20029;-69
2022/05/10 00:09:39;;;;;;;8.85;7.95;;;13.80;99.90;;;;;;5053495;28;20029;-68
2022/05/10 00:12:05;;;;;;;8.63;7.80;;;13.80;99.90;;;;;;5036522;28;20060;-69
2022/05/10 00:14:31;;;;;;;10.80;8.68;;;13.70;99.90;;;;;;5053460;28;20028;-68
2022/05/10 00:16:56;;;;;;;9.65;8.73;;;13.70;99.90;;;;;;5054280;28;20017;-68
2022/05/10 00:19:27;;;;;;;9.18;8.27;;;13.70;99.90;;;;;;5060336;28;20025;-68
2022/05/10 00:21:53;;;;;;;8.75;7.95;;;13.60;99.90;;;;;;5064568;28;20467;-69
2022/05/10 00:24:19;;;;;;;9.13;8.23;;;13.60;99.90;;;;;;5052997;28;20020;-67
2022/05/10 00:26:44;;;;;;;8.95;8.05;;;13.60;99.90;;;;;;5053845;28;20037;-69
2022/05/10 00:29:10;;;;;;;9.38;8.48;;;13.50;99.90;;;;;;5053852;28;20044;-69
2022/05/10 00:31:36;;;;;;;8.77;7.97;;;13.50;99.90;;;;;;5052936;28;20029;-69
2022/05/10 00:34:02;;;;;;;8.70;7.90;;;13.50;99.90;;;;;;5053609;28;20025;-69
2022/05/10 00:36:29;;;;;;;9.13;8.23;;;13.50;99.90;;;;;;5052772;28;20029;-69
2022/05/10 00:38:55;;;;;;;8.73;7.82;;;13.50;99.90;;;;;;5053745;28;20057;-69
2022/05/10 00:41:35;;;;;;;9.13;8.23;;;13.40;99.90;;;;;;5053836;28;20143;-67
2022/05/10 00:44:18;;;;;;;8.90;8.00;;;13.40;99.90;;;;;;5057727;28;20056;-68
2022/05/10 00:46:46;;;;;;;9.70;8.35;;;13.40;99.90;;;;;;5056585;28;20029;-68
2022/05/10 00:49:40;;;;;;;8.95;8.05;;;13.40;99.90;;;;;;5056814;28;20033;-69
2022/05/10 00:52:16;;;;;;;9.05;8.02;;;13.40;99.90;;;;;;5057116;28;20044;-69
2022/05/10 00:54:46;;;;;;;10.05;9.10;;;13.30;99.90;;;;;;5035537;28;20475;-69
2022/05/10 00:57:46;;;;;;;10.95;9.55;;;13.30;99.90;;;;;;5033490;28;20033;-69
2022/05/10 01:00:19;;;;;;;11.18;8.88;;;13.30;99.90;;;;;;5033777;28;20513;-69
2022/05/10 01:03:03;;;;;;;10.27;8.52;;;13.30;99.90;;;;;;5032715;28;20112;-68
2022/05/10 01:05:52;;;;;;;9.85;8.82;;;13.20;99.90;;;;;;5032066;28;20026;-69
2022/05/10 01:08:30;;;;;;;9.13;8.32;;;13.20;99.90;;;;;;5032961;28;20386;-69
2022/05/10 01:10:58;;;;;;;8.75;7.95;;;13.10;99.90;;;;;;5033304;28;20025;-68
2022/05/10 01:13:43;;;;;;;9.20;8.23;;;13.10;99.90;;;;;;5032305;28;20028;-68
2022/05/10 01:16:09;;;;;;;12.43;9.43;;;13.00;99.90;;;;;;5033222;28;20022;-69
2022/05/10 01:18:36;;;;;;;9.55;8.65;;;13.10;99.90;;;;;;5032202;28;20410;-69
2022/05/10 01:21:26;;;;;;;10.40;8.75;;;13.00;99.90;;;;;;5032590;28;20065;-69
2022/05/10 01:24:08;;;;;;;10.23;9.10;;;13.00;99.90;;;;;;5032855;28;20053;-69
2022/05/10 01:26:54;;;;;;;9.57;8.68;;;13.00;99.90;;;;;;5032145;28;20021;-69
2022/05/10 01:29:47;;;;;;;11.30;10.20;;;12.90;99.90;;;;;;5032640;28;20033;-67
2022/05/10 01:35:10;;;;;;;11.13;10.02;;;12.80;99.90;;;;;;5032418;28;20040;-69
2022/05/10 01:37:40;;;;;;;9.77;8.85;;;12.80;99.90;;;;;;5031697;28;20079;-69
2022/05/10 01:40:36;;;;;;;11.35;10.00;;;12.80;99.90;;;;;;5032498;28;20041;-69
2022/05/10 01:43:14;;;;;;;10.25;9.23;;;12.70;99.90;;;;;;5032957;28;20116;-69
2022/05/10 01:45:59;;;;;;;12.20;10.57;;;12.70;99.90;;;;;;5031757;28;20040;-68
2022/05/10 01:48:25;;;;;;;10.88;9.15;;;12.70;99.90;;;;;;5031872;28;20037;-67
2022/05/10 01:51:25;;;;;;;9.90;8.93;;;12.70;99.90;;;;;;5032730;28;20025;-69
2022/05/10 01:53:50;;;;;;;10.57;9.48;;;12.60;99.90;;;;;;5008620;28;20041;-68
2022/05/10 01:56:26;;;;;;;11.13;10.02;;;12.60;99.90;;;;;;5052411;28;20394;-69
2022/05/10 01:58:53;;;;;;;10.75;9.70;;;12.60;99.90;;;;;;5052559;28;20110;-69
2022/05/10 02:01:31;;;;;;;13.35;10.88;;;12.60;99.90;;;;;;5052055;28;20040;-69
2022/05/10 02:04:11;;;;;;;11.98;10.73;;;12.50;99.90;;;;;;5052087;28;20035;-69
2022/05/10 02:06:57;;;;;;;10.98;9.90;;;12.50;99.90;;;;;;5050964;28;20029;-69
2022/05/10 02:09:44;;;;;;;11.27;9.55;;;12.50;99.90;;;;;;5052067;28;20087;-67
2022/05/10 02:12:29;;;;;;;11.77;10.35;;;12.40;99.90;;;;;;5052253;28;20037;-69
2022/05/10 02:15:12;;;;;;;12.50;11.23;;;12.40;99.90;;;;;;5051365;28;20488;-69
2022/05/10 02:17:48;;;;;;;11.25;10.13;;;12.40;99.90;;;;;;5051545;28;20021;-69
2022/05/10 02:20:29;;;;;;;11.70;10.18;;;12.40;99.90;;;;;;5051763;28;20381;-70
2022/05/10 02:23:04;;;;;;;11.85;10.60;;;12.40;99.90;;;;;;5051778;28;20467;-69
2022/05/10 02:25:37;;;;;;;11.35;10.25;;;12.30;99.90;;;;;;5050938;28;20060;-70
2022/05/10 02:28:19;;;;;;;10.75;9.75;;;12.30;99.90;;;;;;5052029;28;20029;-70
2022/05/10 02:30:45;;;;;;;11.65;10.52;;;12.30;99.90;;;;;;5033054;28;20747;-70
2022/05/10 02:33:14;;;;;;;11.93;10.75;;;12.30;99.90;;;;;;5051922;28;20025;-70
2022/05/10 02:35:55;;;;;;;12.70;10.07;;;12.30;99.90;;;;;;5051032;28;20033;-70
2022/05/10 02:38:40;;;;;;;10.70;9.65;;;12.20;99.90;;;;;;5051773;28;20027;-69
2022/05/10 02:41:32;;;;;;;11.00;9.88;;;12.20;99.90;;;;;;5051843;28;20048;-69
2022/05/10 02:44:00;;;;;;;10.60;9.60;;;12.20;99.90;;;;;;5046923;28;20116;-69
2022/05/10 02:46:27;;;;;;;12.38;10.30;;;12.20;99.90;;;;;;5051308;28;20537;-68
2022/05/10 02:48:54;;;;;;;11.50;10.30;;;12.20;99.90;;;;;;5051848;28;20029;-69
2022/05/10 02:51:20;;;;;;;12.05;10.32;;;12.10;99.90;;;;;;5051663;28;20022;-68
2022/05/10 02:53:47;;;;;;;10.73;9.70;;;12.20;99.90;;;;;;5050653;28;20033;-68
2022/05/10 02:56:16;;;;;;;11.60;10.50;;;12.10;99.90;;;;;;5051618;28;20091;-69
2022/05/10 02:58:54;;;;;;;11.70;10.60;;;12.10;99.90;;;;;;5050935;28;20033;-68
2022/05/10 03:01:50;;;;;;;12.35;11.05;;;12.10;99.90;;;;;;5033834;28;20389;-69
2022/05/10 03:04:16;;;;;;;11.93;10.73;;;12.10;99.90;;;;;;5051795;28;20439;-70
2022/05/10 03:06:44;;;;;;;13.90;11.25;;;12.10;99.90;;;;;;5050629;28;20111;-69
2022/05/10 03:09:10;;;;;;;12.82;11.52;;;12.00;99.90;;;;;;5051289;28;20037;-69
2022/05/10 03:11:36;;;;;;;12.68;11.48;;;12.00;99.90;;;;;;5050530;28;20036;-70
2022/05/10 03:14:04;;;;;;;13.35;11.43;;;12.00;99.90;;;;;;5051587;28;20033;-70
2022/05/10 03:16:29;;;;;;;11.90;10.75;;;11.90;99.90;;;;;;5050699;28;20104;-68
2022/05/10 03:18:55;;;;;;;11.93;10.70;;;11.90;99.90;;;;;;5051446;28;20108;-70
2022/05/10 03:21:22;;;;;;;12.55;11.18;;;11.90;99.90;;;;;;5051158;28;20507;-69
2022/05/10 03:23:48;;;;;;;13.93;11.00;;;11.80;99.90;;;;;;5050360;28;20033;-69
2022/05/10 03:26:17;;;;;;;11.30;10.10;;;11.90;99.90;;;;;;5052474;28;20029;-70
2022/05/10 03:28:42;;;;;;;12.02;10.82;;;11.80;99.90;;;;;;5054252;28;20025;-70
2022/05/10 03:31:10;;;;;;;11.82;10.60;;;11.80;99.90;;;;;;5054912;28;20028;-69
2022/05/10 03:33:36;;;;;;;11.85;10.65;;;11.80;99.90;;;;;;5053864;28;20521;-69
2022/05/10 03:36:01;;;;;;;12.30;11.10;;;11.80;99.90;;;;;;5055016;28;20041;-70
2022/05/10 03:38:29;;;;;;;11.65;10.45;;;11.80;99.90;;;;;;5053997;28;20040;-68
2022/05/10 03:40:54;;;;;;;12.52;11.30;;;11.70;99.90;;;;;;5054788;28;20049;-71
2022/05/10 03:43:20;;;;;;;11.90;10.70;;;11.70;99.90;;;;;;5054792;28;20029;-70
2022/05/10 03:45:45;;;;;;;13.45;11.82;;;11.70;99.90;;;;;;5053812;28;20116;-69
2022/05/10 03:48:11;;;;;;;13.15;11.77;;;11.70;99.90;;;;;;5054497;28;20029;-70
2022/05/10 03:50:37;;;;;;;12.80;11.40;;;11.70;99.90;;;;;;5053818;28;20028;-69
2022/05/10 03:53:02;;;;;;;13.43;12.05;;;11.70;99.90;;;;;;5054274;28;20462;-69
2022/05/10 03:55:29;;;;;;;12.25;11.05;;;11.70;99.90;;;;;;5054114;28;20040;-68
2022/05/10 03:57:55;;;;;;;12.25;11.10;;;11.70;99.90;;;;;;5053993;28;20036;-70
2022/05/10 04:00:27;;;;;;;12.23;10.98;;;11.70;99.90;;;;;;5054395;28;20462;-69
2022/05/10 04:02:55;;;;;;;12.55;11.25;;;11.70;99.90;;;;;;5056717;28;20021;-69
2022/05/10 04:05:22;;;;;;;12.88;11.57;;;11.70;99.90;;;;;;5063665;28;20052;-70
2022/05/10 04:07:48;;;;;;;12.30;11.10;;;11.70;99.90;;;;;;5057513;28;20425;-69
2022/05/10 04:10:14;;;;;;;12.82;11.43;;;11.70;99.90;;;;;;5054134;28;20451;-70
2022/05/10 04:12:40;;;;;;;12.57;10.68;;;11.70;99.90;;;;;;5053653;28;20045;-69
2022/05/10 04:15:08;;;;;;;11.95;10.75;;;11.70;99.90;;;;;;5054193;28;20033;-69
2022/05/10 04:17:34;;;;;;;13.73;10.60;;;11.70;99.90;;;;;;5052996;28;20036;-69
2022/05/10 04:20:01;;;;;;;12.15;10.95;;;11.80;99.90;;;;;;5054501;28;20032;-70
2022/05/10 04:22:27;;;;;;;13.32;11.55;;;11.80;99.90;;;;;;5053960;28;20051;-69
2022/05/10 04:24:52;;;;;;;12.25;11.05;;;11.80;99.90;;;;;;5052877;28;20980;-69
2022/05/10 04:27:18;;;;;;;12.95;10.82;;;11.90;99.90;;;;;;5053832;28;20029;-70
2022/05/10 04:29:44;;;;;;;11.00;9.90;;;12.00;99.90;;;;;;5053175;28;20033;-76
2022/05/10 04:32:09;;;;;;;11.45;10.30;;;12.00;99.90;;;;;;5053880;28;20032;-70
2022/05/10 04:34:35;;;;;;;11.88;10.68;;;12.10;99.90;;;;;;5052957;28;20063;-68
2022/05/10 04:37:01;;;;;;;14.18;12.05;;;12.20;99.90;;;;;;5053059;28;20028;-69
2022/05/10 04:41:24;;;;;;;11.98;10.88;;;12.20;99.90;;;;;;5052989;28;20044;-69
2022/05/10 04:42:13;;;;;;;12.30;10.98;;;12.30;99.90;;;;;;5052736;28;20075;-69
2022/05/10 04:44:39;;;;;;;12.88;10.52;;;12.50;99.90;;;;;;5052665;28;20025;-69
2022/05/10 04:47:05;;;;;;;11.18;10.07;;;12.50;99.90;;;;;;5053504;28;20123;-70
2022/05/10 04:49:31;;;;;;;10.68;9.63;;;12.60;99.90;;;;;;5052975;28;20032;-68
2022/05/10 04:51:56;;;;;;;10.57;9.48;;;12.70;99.90;;;;;;5052662;28;20070;-68
2022/05/10 04:54:22;;;;;;;12.02;10.50;;;12.80;99.90;;;;;;5035903;28;20026;-69
2022/05/10 04:56:47;;;;;;;14.13;12.02;;;12.90;99.90;;;;;;5032316;28;20109;-69
2022/05/10 04:59:13;;;;;;;15.23;12.77;;;13.00;99.90;;;;;;5033497;28;20135;-69
2022/05/10 05:01:39;;;;;;;13.27;11.55;;;13.10;99.90;;;;;;5032374;28;20025;-69
2022/05/10 05:04:05;;;;;;;11.73;10.52;;;13.30;99.90;;;;;;5033132;28;20034;-69
2022/05/10 05:06:30;;;;;;;17.05;12.40;;;13.30;99.90;;;;;;5032716;28;20069;-69
2022/05/10 05:08:57;;;;;;;15.13;13.52;;;13.50;99.90;;;;;;5032170;28;20034;-69
2022/05/10 05:11:23;;;;;;;13.68;11.52;;;13.60;99.90;;;;;;5040633;28;20033;-69
2022/05/10 05:13:49;;;;;;;14.80;12.52;;;13.70;99.90;;;;;;5044528;28;20041;-69
2022/05/10 05:16:15;;;;;;;12.38;11.15;;;13.80;99.90;;;;;;5041180;28;20029;-69
2022/05/10 05:18:40;;;;;;;13.35;11.95;;;13.90;99.90;;;;;;5041714;28;20075;-68
2022/05/10 05:21:06;;;;;;;14.35;12.82;;;14.00;99.90;;;;;;5042745;28;20430;-68
2022/05/10 05:23:32;;;;;;;16.73;12.55;;;14.10;99.90;;;;;;5018121;28;20041;-68
2022/05/10 05:25:57;;;;;;;14.05;12.27;;;14.20;99.90;;;;;;5031314;28;20049;-68
2022/05/10 05:28:23;;;;;;;13.32;12.02;;;14.40;99.90;;;;;;5032493;28;20029;-70
2022/05/10 05:30:50;;;;;;;15.40;12.10;;;14.50;99.90;;;;;;5031966;28;20022;-70
2022/05/10 05:33:16;;;;;;;17.88;12.48;;;14.60;99.90;;;;;;5015117;28;20026;-68
2022/05/10 05:35:42;;;;;;;13.55;11.60;;;14.70;99.90;;;;;;5031613;28;20033;-68
2022/05/10 05:38:09;;;;;;;14.57;12.40;;;14.80;99.90;;;;;;5032596;28;20025;-69
2022/05/10 05:40:36;;;;;;;17.30;14.18;;;14.90;99.90;;;;;;5032385;28;20487;-67
2022/05/10 05:43:02;;;;;;;14.13;11.98;;;15.00;99.90;;;;;;5034412;28;20033;-69
2022/05/10 05:45:28;;;;;;;14.48;11.98;;;15.10;99.90;;;;;;5052038;28;20037;-69
2022/05/10 05:47:54;;;;;;;15.80;12.52;;;15.20;99.90;;;;;;5051288;28;20159;-69
2022/05/10 05:50:22;;;;;;;17.73;13.02;;;15.30;99.90;;;;;;5051589;28;20029;-71
2022/05/10 05:52:48;;;;;;;15.75;12.25;;;15.40;99.90;;;;;;5051318;28;20028;-73
2022/05/10 05:55:15;;;;;;;16.33;12.68;;;15.50;99.90;;;;;;5052249;28;20033;-72
2022/05/10 05:57:41;;;;;;;18.83;14.43;;;15.60;99.90;;;;;;5051326;28;20025;-72
2022/05/10 06:00:10;;;;;;;15.20;13.57;;;15.70;99.90;;;;;;5052693;28;20029;-72
2022/05/10 06:02:36;;;;;;;13.98;12.57;;;15.80;99.90;;;;;;5051577;28;20071;-72
2022/05/10 06:05:03;;;;;;;16.27;12.65;;;15.90;99.90;;;;;;5052389;28;20029;-73
2022/05/10 06:07:28;;;;;;;15.02;12.40;;;16.00;99.90;;;;;;5052191;28;20064;-72
2022/05/10 06:09:54;;;;;;;13.70;11.30;;;16.10;99.90;;;;;;5033680;28;20219;-73
2022/05/10 06:12:20;;;;;;;14.95;13.32;;;16.10;99.90;;;;;;5056003;28;20029;-73
2022/05/10 06:14:47;;;;;;;17.17;12.82;;;16.20;99.90;;;;;;5078516;28;20028;-73
2022/05/10 06:17:14;;;;;;;20.27;12.63;;;16.30;99.90;;;;;;5060669;28;20024;-73
2022/05/10 06:19:41;;;;;;;14.05;12.13;;;16.40;99.90;;;;;;5079462;28;20040;-72
2022/05/10 06:22:09;;;;;;;14.48;12.25;;;16.50;99.90;;;;;;5077260;28;20040;-72
2022/05/10 06:24:35;;;;;;;16.27;12.50;;;16.50;99.90;;;;;;5040091;28;20108;-72
2022/05/10 06:27:06;;;;;;;11.95;10.63;;;16.60;99.90;;;;;;5031343;28;20033;-72
2022/05/10 06:29:34;;;;;;;15.20;12.23;;;16.70;99.90;;;;;;5031916;28;20069;-74
2022/05/10 06:32:00;;;;;;;15.45;12.52;;;16.80;99.90;;;;;;5031441;28;20030;-73
2022/05/10 06:34:25;;;;;;;19.98;12.45;;;16.90;99.90;;;;;;5032344;28;20112;-73
2022/05/10 06:36:51;;;;;;;14.63;12.55;;;16.90;99.90;;;;;;5031392;28;20032;-73
2022/05/10 06:39:17;;;;;;;15.35;11.57;;;17.00;99.90;;;;;;5031795;28;20060;-73
2022/05/10 06:41:42;;;;;;;17.17;12.57;;;17.10;99.90;;;;;;5031282;28;20036;-73
2022/05/10 06:44:08;;;;;;;20.10;12.20;;;17.20;99.90;;;;;;5058684;28;20021;-76
2022/05/10 06:46:35;;;;;;;13.05;11.75;;;17.40;99.90;;;;;;5071505;28;20116;-72
2022/05/10 06:49:01;;;;;;;15.35;11.35;;;17.50;99.90;;;;;;5070158;28;20036;-73
2022/05/10 06:51:28;;;;;;;28.63;12.60;;;17.60;99.90;;;;;;5050306;28;20023;-74
2022/05/10 06:53:54;;;;;;;15.43;12.95;;;17.70;99.90;;;;;;5049941;28;20057;-74
2022/05/10 06:56:21;;;;;;;16.50;11.90;;;17.90;99.90;;;;;;5047106;28;20546;-74
2022/05/10 06:58:47;;;;;;;16.80;11.35;;;18.00;99.90;;;;;;5050412;28;20048;-74
2022/05/10 07:01:13;;;;;;;18.05;11.55;;;18.00;99.90;;;;;;5053742;28;20427;-75
2022/05/10 07:03:47;;;;;;;16.77;11.38;;;18.20;99.90;;;;;;5054367;28;20482;-74
2022/05/10 07:06:16;;;;;;;15.13;12.48;;;18.30;99.90;;;;;;5054412;28;20032;-73
2022/05/10 07:08:44;;;;;;;14.68;10.85;;;18.40;99.90;;;;;;5054347;28;20029;-74
2022/05/10 07:11:10;;;;;;;19.02;12.10;;;18.60;99.90;;;;;;5055513;28;20045;-73
2022/05/10 07:13:36;;;;;;;17.92;11.73;;;18.60;99.90;;;;;;5054514;28;20031;-73
2022/05/10 07:16:02;;;;;;;14.52;11.77;;;18.70;99.90;;;;;;5055055;28;20055;-75
2022/05/10 07:18:28;;;;;;;12.95;10.73;;;18.80;99.90;;;;;;5054945;28;20469;-73
2022/05/10 07:20:54;;;;;;;16.48;11.07;;;18.80;99.90;;;;;;5054446;28;20591;-74
2022/05/10 07:23:27;;;;;;;13.70;10.98;;;18.90;99.90;;;;;;5055537;28;20049;-74
2022/05/10 07:25:54;;;;;;;13.18;11.38;;;19.00;99.90;;;;;;5053475;28;20029;-74
2022/05/10 07:28:19;;;;;;;12.02;10.77;;;19.10;99.90;;;;;;5054897;28;20064;-74
2022/05/10 07:30:45;;;;;;;14.85;10.88;;;19.20;99.90;;;;;;5036135;28;20473;-75
2022/05/10 07:33:11;;;;;;;13.80;10.98;;;19.30;99.90;;;;;;5055895;28;20025;-75
2022/05/10 07:38:21;;;;;;;11.35;9.73;;;19.50;99.90;;;;;;5056120;28;20031;-75
2022/05/10 07:40:49;;;;;;;14.82;10.40;;;19.60;99.90;;;;;;5055124;28;20053;-73
2022/05/10 07:43:17;;;;;;;14.25;10.25;;;19.80;99.90;;;;;;5061214;28;20529;-75
2022/05/10 07:45:45;;;;;;;10.88;8.80;;;20.00;99.90;;;;;;5071869;28;20029;-74
2022/05/10 07:48:11;;;;;;;11.70;9.60;;;20.20;99.90;;;;;;5054996;28;20037;-74
2022/05/10 07:50:37;;;;;;;17.42;9.98;;;20.40;99.90;;;;;;5054756;28;20025;-76
2022/05/10 07:53:06;;;;;;;14.70;10.27;;;20.60;99.90;;;;;;5055770;28;20025;-74
2022/05/10 07:55:36;;;;;;;15.23;9.77;;;20.80;99.90;;;;;;5057859;28;20029;-75
2022/05/10 07:58:05;;;;;;;11.82;8.45;;;20.90;99.90;;;;;;5056109;28;20032;-74
2022/05/10 08:00:33;;;;;;;10.35;7.20;;;20.90;99.90;;;;;;5054503;28;20025;-73
2022/05/10 08:02:58;;;;;;;9.40;6.45;;;21.10;99.10;;;;;;5053176;28;20029;-74
2022/05/10 08:05:25;;;;;;;6.65;5.82;;;21.30;97.30;;;;;;5053878;28;20456;-73
2022/05/10 08:07:51;;;;;;;6.35;5.68;;;21.50;97.00;;;;;;5053535;28;20399;-74
2022/05/10 08:10:18;;;;;;;6.13;5.53;;;21.70;95.80;;;;;;5054288;28;20112;-75
2022/05/10 08:12:45;;;;;;;5.93;5.30;;;21.90;94.90;;;;;;5054813;28;20033;-74
2022/05/10 08:15:11;;;;;;;7.85;5.95;;;22.10;94.50;;;;;;5073942;28;20029;-74
2022/05/10 08:17:38;;;;;;;7.53;5.50;;;22.30;93.80;;;;;;5058564;28;20663;-74
2022/05/10 08:20:05;;;;;;;9.38;6.13;;;22.30;93.20;;;;;;5054306;28;20450;-75
2022/05/10 08:22:31;;;;;;;7.53;5.95;;;22.50;92.80;;;;;;5052909;28;20021;-73
2022/05/10 08:24:57;;;;;;;11.93;5.93;;;22.50;92.30;;;;;;5051779;28;20481;-73
2022/05/10 08:27:23;;;;;;;6.28;5.00;;;22.60;91.70;;;;;;5053874;28;20056;-74
2022/05/10 08:29:49;;;;;;;8.13;5.88;;;22.60;91.50;;;;;;5052995;28;20021;-73
2022/05/10 08:32:15;;;;;;;7.05;5.10;;;22.70;90.80;;;;;;5052949;28;20037;-74
2022/05/10 08:34:41;;;;;;;5.57;5.00;;;22.80;90.10;;;;;;5052541;28;20455;-72
2022/05/10 08:37:07;;;;;;;7.30;5.57;;;22.90;89.30;;;;;;5053473;28;20035;-73
2022/05/10 08:39:33;;;;;;;5.97;5.20;;;23.10;89.00;;;;;;5053037;28;20389;-71
2022/05/10 08:42:04;;;;;;;7.63;5.80;;;23.20;88.10;;;;;;5052160;28;20044;-72
2022/05/10 08:44:35;;;;;;;5.75;4.50;;;23.30;87.80;;;;;;5069601;28;20374;-72
2022/05/10 08:47:07;;;;;;;6.88;5.53;;;23.40;87.40;;;;;;5072323;28;20035;-74
2022/05/10 08:49:33;;;;;;;6.13;5.53;;;23.50;85.80;;;;;;5054653;28;20024;-72
2022/05/10 08:51:59;;;;;;;6.10;5.15;;;23.50;85.20;;;;;;5051656;28;20032;-72
2022/05/10 08:54:27;;;;;;;6.43;5.50;;;23.70;84.20;;;;;;5052380;28;20112;-72
2022/05/10 08:57:16;;;;;;;5.10;4.57;;;23.70;84.50;;;;;;5051640;28;20484;-75
2022/05/10 08:59:42;;;;;;;5.55;4.65;;;23.90;82.90;;;;;;5052219;28;20033;-71
2022/05/10 09:02:30;;;;;;;5.93;4.70;;;24.10;81.70;;;;;;5052453;28;20027;-73
2022/05/10 09:05:07;;;;;;;6.03;4.03;;;24.20;77.80;;;;;;5051095;28;20032;-72
2022/05/10 09:07:38;;;;;;;11.30;4.72;;;24.40;76.10;;;;;;5052339;28;20035;-73
2022/05/10 09:10:15;;;;;;;12.07;4.68;;;24.50;76.80;;;;;;5052847;28;20064;-73
2022/05/10 09:13:11;;;;;;;12.60;5.50;;;24.70;77.90;;;;;;5053656;28;20033;-73
2022/05/10 09:15:40;;;;;;;9.70;5.13;;;24.80;75.10;;;;;;5069445;28;20802;-72
2022/05/10 09:18:23;;;;;;;17.33;6.18;;;24.90;74.30;;;;;;5068380;28;20075;-72
2022/05/10 09:21:07;;;;;;;5.65;4.82;;;25.00;73.10;;;;;;5051272;28;20040;-71
2022/05/10 09:24:00;;;;;;;4.45;4.05;;;25.00;72.00;;;;;;5051350;28;20021;-72
2022/05/10 09:26:38;;;;;;;5.40;4.45;;;25.20;70.50;;;;;;5051035;28;20469;-73
2022/05/10 09:29:10;;;;;;;8.85;4.57;;;25.40;70.40;;;;;;5052292;28;20025;-73
2022/05/10 09:37:15;;;;;;;7.07;4.35;;;25.60;66.90;;;;;;5052107;28;20106;-72
2022/05/10 09:40:06;;;;;;;4.65;4.22;;;25.70;67.00;;;;;;5050779;28;20049;-72
2022/05/10 09:42:44;;;;;;;6.28;4.22;;;25.80;64.60;;;;;;5051766;28;20491;-72
2022/05/10 09:45:16;;;;;;;9.55;4.30;;;25.90;63.00;;;;;;5071914;28;20028;-73
2022/05/10 09:48:11;;;;;;;14.90;4.50;;;25.90;62.80;;;;;;5071637;28;20033;-73
2022/05/10 09:50:39;;;;;;;14.82;3.83;;;26.10;62.60;;;;;;5071200;28;20055;-72
2022/05/10 09:53:30;;;;;;;6.00;3.92;;;26.30;61.60;;;;;;5064713;28;20027;-74
2022/05/10 09:56:00;;;;;;;8.82;4.30;;;26.30;60.90;;;;;;5049832;28;20028;-72
2022/05/10 09:59:00;;;;;;;8.55;4.63;;;26.40;61.50;;;;;;5051712;28;20028;-72
2022/05/10 10:01:48;;;;;;;33.88;5.85;;;26.50;61.70;;;;;;4998152;28;20540;-72
2022/05/10 10:04:26;;;;;;;42.85;5.20;;;26.60;61.20;;;;;;5051511;28;20029;-72
2022/05/10 10:07:13;;;;;;;6.30;4.60;;;26.70;61.30;;;;;;5050464;28;20111;-73
2022/05/10 10:09:41;;;;;;;20.33;5.22;;;26.80;60.90;;;;;;5050969;28;20041;-72
2022/05/10 10:12:28;;;;;;;5.07;3.97;;;27.00;60.20;;;;;;5051024;28;20025;-72
2022/05/10 10:14:55;;;;;;;6.18;3.92;;;27.20;59.80;;;;;;5050727;28;20025;-72
2022/05/10 10:17:36;;;;;;;5.57;4.18;;;27.20;59.60;;;;;;5051277;28;20397;-72
2022/05/10 10:20:27;;;;;;;12.60;4.25;;;27.20;59.40;;;;;;5051665;28;20446;-82
2022/05/10 10:22:55;;;;;;;8.07;4.07;;;27.40;59.50;;;;;;5055376;28;20036;-79
2022/05/10 10:25:26;;;;;;;7.90;4.68;;;27.40;59.20;;;;;;5033031;28;20033;-78
2022/05/10 10:28:40;;;;;;;6.43;4.22;;;27.60;58.30;;;;;;5051044;28;20033;-80
2022/05/10 10:31:12;;;;;;;6.15;4.40;;;;;;;;;;5031092;28;20064;-82
2022/05/10 10:33:47;;;;;;;4.43;3.85;;;;;;;;;;5050739;28;20029;-79
2022/05/10 10:36:15;;;;;;;8.15;4.00;;;;;;;;;;5055010;28;20036;-79
2022/05/10 10:39:00;;;;;;;5.05;3.65;;;;;;;;;;5054446;28;20043;-75
2022/05/10 10:41:32;;;;;;;4.60;3.88;;;;;;;;;;5055483;28;20039;-76
2022/05/10 10:44:09;;;;;;;4.72;3.83;;;;;;;;;;5049087;28;20024;-73
2022/05/10 10:46:41;;;;;;;4.93;3.67;;;;;;;;;;5035529;28;20494;-74
2022/05/10 10:49:09;;;;;;;3.50;3.20;;;;;;;;;;5035505;28;20029;-75
2022/05/10 10:51:35;;;;;;;5.95;3.60;;;;;;;;;;5034987;28;20127;-76
2022/05/10 10:54:02;;;;;;;5.18;3.33;;;;;;;;;;5049018;28;20025;-75
2022/05/10 10:56:36;;;;;;;4.85;3.40;;;;;;;;;;5054308;28;20033;-78
2022/05/10 10:59:01;;;;;;;6.95;3.70;;;;;;;;;;5054580;28;20032;-75
2022/05/10 11:01:46;;;;;;;4.53;4.15;;;;;;;;;;5055017;28;20377;-73
2022/05/10 11:04:15;;;;;;;5.07;3.95;;;;;;;;;;5054630;28;20039;-73
2022/05/10 11:06:45;;;;;;;5.00;3.60;;;;;;;;;;5053943;28;20033;-74
2022/05/10 11:09:17;;;;;;;4.35;3.35;;;;;;;;;;5054197;28;20057;-71
2022/05/10 11:11:52;;;;;;;7.55;3.55;;;;;;;;;;5053809;28;20064;-72
2022/05/10 11:14:36;;;;;;;3.78;3.47;;;;;;;;;;5069837;28;20021;-78
2022/05/10 11:17:02;;;;;;;5.57;3.38;;;;;;;;;;5053989;28;20037;-78
2022/05/10 11:19:41;;;;;;;7.45;4.03;;;;;;;;;;5054051;28;20028;-79
2022/05/10 11:22:07;;;;;;;5.88;3.25;;;;;;;;;;5054041;28;20032;-70
2022/05/10 11:24:59;;;;;;;5.88;3.45;;;;;;;;;;5054695;28;20025;-72
2022/05/10 11:27:32;;;;;;;3.78;3.47;;;;;;;;;;5050038;28;20099;-71
2022/05/10 11:30:07;;;;;;;21.13;4.13;;;;;;;;;;5053282;28;20580;-73
2022/05/10 11:32:45;;;;;;;16.50;4.13;;;;;;;;;;5054038;28;20021;-71
2022/05/10 11:35:37;;;;;;;5.13;3.70;;;;;;;;;;5050126;28;20029;-71
2022/05/10 11:38:08;;;;;;;10.68;3.88;;;;;;;;;;5055767;28;20052;-71
2022/05/10 11:41:10;;;;;;;5.28;3.83;;;;;;;;;;5053964;28;20141;-71
2022/05/10 11:43:51;;;;;;;9.13;3.10;;;;;;;;;;4971954;28;20029;-71
2022/05/10 11:46:33;;;;;;;10.07;3.97;;;;;;;;;;5027781;28;20192;-71
2022/05/10 11:49:18;;;;;;;7.30;3.65;;;;;;;;;;5052975;28;20032;-71
2022/05/10 11:51:53;;;;;;;5.63;3.97;;;;;;;;;;5053831;28;20024;-72
2022/05/10 11:54:39;;;;;;;22.63;4.22;;;;;;;;;;5054048;28;20108;-71
2022/05/10 11:57:08;;;;;;;6.40;3.78;;;;;;;;;;5052769;28;20043;-71
2022/05/10 11:59:37;;;;;;;15.00;3.90;;;;;;;;;;5053920;28;20036;-71
2022/05/10 12:02:04;;;;;;;6.68;4.05;;;;;;;;;;5053264;28;20021;-71
2022/05/10 12:04:38;;;;;;;4.85;3.20;;;;;;;;;;5051721;28;20061;-72
2022/05/10 12:07:23;;;;;;;3.50;3.05;;;;;;;;;;5052765;28;20029;-70
2022/05/10 12:09:52;;;;;;;4.72;3.53;;;;;;;;;;5052633;28;20044;-71
2022/05/10 12:12:33;;;;;;;5.70;3.45;;;;;;;;;;5050966;28;20021;-71
2022/05/10 12:23:53;;;;;;;2.97;2.67;;;;;;;;;;5053366;28;20028;-72
2022/05/10 12:26:35;;;;;;;3.63;2.90;;;;;;;;;;5052402;28;20412;-72
2022/05/10 12:29:02;;;;;;;4.30;3.17;;;;;;;;;;5052419;28;20037;-71
2022/05/10 12:31:33;;;;;;;7.82;3.22;;;;;;;;;;5053472;28;20082;-71
2022/05/10 12:34:00;;;;;;;4.43;2.85;;;;;;;;;;5050761;28;20529;-72
2022/05/10 12:36:28;;;;;;;3.83;2.85;;;;;;;;;;5052693;28;20401;-71
2022/05/10 12:38:54;;;;;;;6.13;2.97;;;;;;;;;;5052236;28;21508;-71
2022/05/10 12:41:41;;;;;;;2.65;2.45;;;;;;;;;;5053279;28;20025;-71
2022/05/10 12:44:12;;;;;;;4.63;3.47;;;;;;;;;;5051215;28;20033;-71
2022/05/10 12:46:48;;;;;;;3.70;3.40;;;;;;;;;;5053653;28;20496;-71
2022/05/10 12:49:26;;;;;;;4.47;3.25;;;;;;;;;;5052962;28;20385;-70
2022/05/10 12:51:52;;;;;;;5.10;3.03;;;;;;;;;;5051915;28;20040;-71
2022/05/10 12:54:22;;;;;;;4.15;2.80;;;;;;;;;;5052800;28;20020;-71
2022/05/10 12:56:56;;;;;;;4.97;3.03;;;;;;;;;;5050989;28;20033;-70
2022/05/10 12:59:27;;;;;;;3.42;3.13;;;;;;;;;;5052429;28;20031;-71
2022/05/10 13:01:55;;;;;;;3.60;3.00;;;;;;;;;;5051709;28;20025;-70
2022/05/10 13:04:21;;;;;;;3.42;3.00;;;;;;;;;;5052637;28;20036;-70
2022/05/10 13:06:53;;;;;;;6.05;3.30;;;;;;;;;;5051323;28;20449;-70
2022/05/10 13:09:33;;;;;;;3.30;2.97;;;;;;;;;;5049795;28;20385;-71
2022/05/10 13:11:59;;;;;;;3.80;3.40;;;;;;;;;;5051722;28;20186;-71
2022/05/10 13:14:26;;;;;;;5.10;2.80;;;;;;;;;;5068084;28;20473;-69
2022/05/10 13:16:54;;;;;;;5.97;3.30;;;;;;;;;;5071682;28;20511;-70
2022/05/10 13:19:21;;;;;;;4.63;3.00;;;;;;;;;;5067057;28;20466;-70
2022/05/10 13:21:48;;;;;;;7.70;2.80;;;;;;;;;;5051989;28;20532;-70
2022/05/10 13:24:16;;;;;;;4.05;3.13;;;;;;;;;;5046443;28;20066;-70
2022/05/10 13:26:59;;;;;;;5.53;3.30;;;;;;;;;;5051738;28;20033;-71
2022/05/10 13:29:39;;;;;;;4.50;3.22;;;;;;;;;;5053799;28;20025;-70
2022/05/10 13:32:09;;;;;;;6.32;2.97;;;;;;;;;;5045690;28;20121;-71
2022/05/10 13:34:46;;;;;;;5.40;3.25;;;;;;;;;;5052756;28;20025;-71
2022/05/10 13:37:20;;;;;;;4.93;2.88;;;;;;;;;;5051894;28;20036;-70
2022/05/10 13:39:46;;;;;;;3.80;2.67;;;;;;;;;;5048751;28;20041;-70
2022/05/10 13:42:13;;;;;;;3.35;2.92;;;;;;;;;;5052894;28;20033;-70
2022/05/10 13:44:40;;;;;;;3.03;2.50;;;;;;;;;;5062119;28;20099;-70